createdAt,value
2019-06-27T00:01:16.469Z,69.59
2019-06-27T00:03:44.888Z,70.31
2019-06-27T00:06:13.301Z,69.67
2019-06-27T00:08:41.706Z,68.90
2019-06-27T00:11:10.129Z,68.28
2019-06-27T00:13:38.698Z,68.45
2019-06-27T00:16:07.119Z,68.51
2019-06-27T00:18:35.539Z,67.72
2019-06-27T00:21:03.979Z,68.74
2019-06-27T00:23:32.382Z,69.00
2019-06-27T00:26:00.814Z,69.85
2019-06-27T00:28:29.220Z,70.02
2019-06-27T00:30:57.636Z,69.95
2019-06-27T00:33:26.070Z,69.41
2019-06-27T00:35:54.501Z,68.90
2019-06-27T00:38:22.912Z,69.07
2019-06-27T00:40:51.337Z,68.77
2019-06-27T00:43:19.738Z,69.31
2019-06-27T00:45:48.159Z,69.37
2019-06-27T00:48:16.582Z,68.82
2019-06-27T00:50:45.465Z,68.30
2019-06-27T00:53:13.886Z,67.92
2019-06-27T00:55:42.699Z,67.88
2019-06-27T00:58:11.239Z,68.14
2019-06-27T01:00:39.664Z,67.92
2019-06-27T01:03:08.142Z,68.03
2019-06-27T01:05:36.568Z,68.22
2019-06-27T01:08:04.973Z,68.41
2019-06-27T01:10:33.462Z,68.71
2019-06-27T01:13:01.859Z,68.77
2019-06-27T01:15:30.336Z,69.06
2019-06-27T01:17:58.680Z,69.28
2019-06-27T01:20:27.127Z,69.89
2019-06-27T01:22:55.540Z,69.47
2019-06-27T01:25:23.963Z,68.73
2019-06-27T01:27:52.376Z,68.87
2019-06-27T01:30:20.877Z,69.50
2019-06-27T01:32:49.302Z,69.64
2019-06-27T01:35:17.787Z,69.72
2019-06-27T01:37:46.196Z,69.84
2019-06-27T01:40:14.671Z,70.09
2019-06-27T01:42:43.153Z,69.75
2019-06-27T01:45:19.286Z,70.13
2019-06-27T01:47:47.698Z,70.68
2019-06-27T01:50:16.144Z,70.94
2019-06-27T01:52:44.555Z,70.60
2019-06-27T01:55:13.045Z,70.69
2019-06-27T01:57:46.660Z,70.97
2019-06-27T02:00:11.862Z,70.98
2019-06-27T02:02:40.348Z,71.60
2019-06-27T02:05:08.846Z,71.75
2019-06-27T02:07:37.260Z,71.92
2019-06-27T02:10:09.621Z,71.87
2019-06-27T02:12:38.043Z,71.74
2019-06-27T02:15:08.399Z,72.19
2019-06-27T02:17:36.803Z,71.91
2019-06-27T02:20:07.863Z,72.31
2019-06-27T02:22:36.285Z,73.38
2019-06-27T02:25:09.229Z,73.28
2019-06-27T02:27:37.701Z,73.66
2019-06-27T02:30:07.303Z,73.41
2019-06-27T02:32:35.735Z,73.66
2019-06-27T02:35:05.979Z,73.48
2019-06-27T02:37:34.460Z,73.34
2019-06-27T02:40:03.258Z,72.58
2019-06-27T02:42:31.668Z,72.79
2019-06-27T02:45:00.077Z,72.80
2019-06-27T02:47:28.488Z,72.45
2019-06-27T02:49:56.896Z,72.55
2019-06-27T02:52:25.323Z,73.03
2019-06-27T02:54:53.722Z,72.66
2019-06-27T02:57:22.321Z,72.43
2019-06-27T02:59:50.735Z,72.10
2019-06-27T03:02:19.156Z,71.57
2019-06-27T03:04:47.561Z,71.60
2019-06-27T03:07:15.972Z,71.20
2019-06-27T03:09:44.379Z,70.69
2019-06-27T03:12:12.796Z,70.90
2019-06-27T03:14:41.214Z,70.92
2019-06-27T03:17:09.636Z,71.50
2019-06-27T03:19:38.056Z,70.59
2019-06-27T03:22:10.671Z,70.49
2019-06-27T03:24:39.082Z,69.45
2019-06-27T03:27:07.518Z,69.41
2019-06-27T03:29:35.932Z,69.59
2019-06-27T03:32:04.363Z,69.99
2019-06-27T03:34:32.799Z,69.66
2019-06-27T03:37:01.234Z,69.11
2019-06-27T03:39:29.645Z,69.20
2019-06-27T03:41:58.058Z,69.69
2019-06-27T03:44:26.483Z,69.39
2019-06-27T03:46:54.916Z,69.20
2019-06-27T03:49:23.371Z,69.04
2019-06-27T03:51:51.762Z,68.62
2019-06-27T03:54:20.179Z,69.10
2019-06-27T03:56:48.598Z,68.79
2019-06-27T03:59:17.001Z,68.17
2019-06-27T04:01:45.420Z,68.42
2019-06-27T04:04:13.823Z,67.96
2019-06-27T04:06:42.263Z,67.54
2019-06-27T04:09:10.674Z,68.07
2019-06-27T04:11:40.754Z,67.83
2019-06-27T04:14:09.144Z,67.78
2019-06-27T04:16:38.644Z,67.69
2019-06-27T04:19:07.525Z,67.65
2019-06-27T04:21:36.034Z,67.01
2019-06-27T04:24:04.599Z,66.66
2019-06-27T04:26:33.002Z,66.36
2019-06-27T04:29:01.420Z,66.11
2019-06-27T04:31:29.856Z,65.76
2019-06-27T04:33:58.340Z,65.92
2019-06-27T04:36:26.783Z,65.57
2019-06-27T04:38:55.168Z,65.66
2019-06-27T04:41:23.687Z,66.00
2019-06-27T04:43:52.136Z,66.11
2019-06-27T04:46:20.544Z,66.47
2019-06-27T04:48:48.967Z,66.34
2019-06-27T04:51:17.381Z,66.43
2019-06-27T04:53:45.802Z,65.94
2019-06-27T04:56:14.207Z,65.60
2019-06-27T04:58:42.637Z,64.88
2019-06-27T05:01:11.064Z,64.41
2019-06-27T05:03:39.460Z,63.79
2019-06-27T05:06:07.895Z,64.45
2019-06-27T05:08:36.296Z,64.40
2019-06-27T05:11:04.711Z,64.31
2019-06-27T05:13:33.129Z,64.20
2019-06-27T05:19:28.722Z,62.72
2019-06-27T05:21:57.132Z,63.06
2019-06-27T05:24:25.548Z,63.09
2019-06-27T05:26:53.970Z,63.85
2019-06-27T05:29:22.377Z,63.63
2019-06-27T05:31:50.812Z,62.90
2019-06-27T05:34:19.221Z,62.11
2019-06-27T05:36:47.642Z,62.00
2019-06-27T05:39:16.051Z,61.55
2019-06-27T05:41:44.457Z,61.56
2019-06-27T05:44:12.881Z,61.85
2019-06-27T05:46:41.293Z,62.35
2019-06-27T05:49:09.755Z,61.76
2019-06-27T05:51:38.146Z,61.58
2019-06-27T05:54:06.645Z,61.74
2019-06-27T05:56:35.135Z,61.77
2019-06-27T05:59:03.558Z,61.69
2019-06-27T06:01:31.978Z,61.96
2019-06-27T06:04:00.408Z,61.55
2019-06-27T06:06:28.809Z,61.13
2019-06-27T06:08:57.225Z,61.42
2019-06-27T06:11:25.678Z,60.34
2019-06-27T06:13:54.059Z,60.72
2019-06-27T06:16:22.482Z,60.19
2019-06-27T06:18:50.881Z,59.20
2019-06-27T06:21:19.314Z,58.03
2019-06-27T06:23:47.740Z,57.70
2019-06-27T06:26:16.141Z,58.41
2019-06-27T06:28:44.556Z,58.69
2019-06-27T06:31:12.976Z,57.08
2019-06-27T06:33:41.395Z,56.39
2019-06-27T06:36:09.794Z,53.58
2019-06-27T06:38:38.217Z,50.96
2019-06-27T06:41:06.615Z,49.21
2019-06-27T06:43:35.077Z,48.53
2019-06-27T06:46:03.497Z,48.18
2019-06-27T06:48:31.923Z,48.98
2019-06-27T06:51:00.413Z,48.85
2019-06-27T06:53:28.832Z,47.89
2019-06-27T06:55:57.239Z,48.53
2019-06-27T06:58:25.671Z,48.42
2019-06-27T07:01:01.575Z,48.05
2019-06-27T07:03:24.277Z,47.71
2019-06-27T07:05:52.696Z,49.23
2019-06-27T07:08:21.130Z,49.64
2019-06-27T07:10:49.920Z,50.12
2019-06-27T07:13:18.371Z,50.07
2019-06-27T07:15:47.201Z,49.57
2019-06-27T07:18:15.623Z,49.05
2019-06-27T07:20:44.027Z,49.34
2019-06-27T07:23:12.453Z,46.74
2019-06-27T07:25:41.898Z,44.45
2019-06-27T07:28:10.451Z,43.35
2019-06-27T07:30:38.861Z,44.57
2019-06-27T07:33:10.189Z,44.40
2019-06-27T07:35:37.451Z,44.98
2019-06-27T07:38:05.863Z,44.58
2019-06-27T07:40:34.271Z,44.42
2019-06-27T07:43:02.694Z,45.43
2019-06-27T07:45:31.114Z,42.70
2019-06-27T07:47:59.545Z,41.43
2019-06-27T07:50:27.945Z,40.36
2019-06-27T07:52:56.353Z,40.40
2019-06-27T07:55:24.936Z,40.30
2019-06-27T07:57:53.346Z,42.03
2019-06-27T08:00:23.408Z,43.98
2019-06-27T08:02:51.821Z,45.10
2019-06-27T08:05:20.390Z,45.81
2019-06-27T08:07:48.793Z,45.51
2019-06-27T08:10:18.237Z,45.89
2019-06-27T08:12:46.654Z,45.13
2019-06-27T08:15:15.086Z,45.02
2019-06-27T08:17:43.509Z,45.14
2019-06-27T08:20:12.470Z,44.85
2019-06-27T08:22:40.867Z,45.73
2019-06-27T08:25:10.129Z,45.64
2019-06-27T08:27:38.543Z,45.47
2019-06-27T08:30:08.668Z,44.92
2019-06-27T08:32:37.309Z,45.28
2019-06-27T08:35:07.585Z,44.73
2019-06-27T08:37:36.014Z,45.28
2019-06-27T08:40:06.285Z,45.27
2019-06-27T08:42:34.695Z,44.92
2019-06-27T08:45:03.406Z,45.50
2019-06-27T08:47:31.808Z,45.69
2019-06-27T08:50:00.241Z,44.50
2019-06-27T08:52:28.659Z,43.82
2019-06-27T08:54:57.080Z,43.56
2019-06-27T08:57:25.470Z,44.39
2019-06-27T08:59:53.890Z,44.60
2019-06-27T09:02:22.288Z,44.75
2019-06-27T09:04:50.704Z,44.75
2019-06-27T09:07:19.104Z,45.17
2019-06-27T09:09:47.525Z,45.33
2019-06-27T09:12:15.943Z,45.32
2019-06-27T09:14:44.364Z,44.85
2019-06-27T09:17:12.771Z,44.60
2019-06-27T09:19:41.224Z,44.75
2019-06-27T09:22:09.616Z,45.24
2019-06-27T09:24:38.036Z,45.00
2019-06-27T09:27:06.437Z,45.47
2019-06-27T09:29:34.855Z,44.60
2019-06-27T09:32:03.253Z,44.83
2019-06-27T09:34:31.688Z,45.39
2019-06-27T09:37:00.121Z,44.91
2019-06-27T09:39:28.513Z,45.25
2019-06-27T09:41:56.919Z,45.05
2019-06-27T09:44:25.334Z,45.53
2019-06-27T09:46:53.753Z,45.33
2019-06-27T09:49:22.165Z,45.44
2019-06-27T09:51:50.596Z,45.83
2019-06-27T09:54:18.999Z,46.24
2019-06-27T09:56:47.433Z,46.69
2019-06-27T09:59:15.904Z,47.10
2019-06-27T10:01:44.337Z,46.81
2019-06-27T10:04:12.936Z,47.97
2019-06-27T10:06:41.323Z,48.13
2019-06-27T10:09:09.837Z,48.03
2019-06-27T10:11:38.245Z,48.30
2019-06-27T10:14:06.673Z,49.15
2019-06-27T10:16:35.071Z,48.90
2019-06-27T10:19:03.505Z,49.05
2019-06-27T10:21:31.900Z,48.13
2019-06-27T10:24:00.312Z,49.02
2019-06-27T10:26:28.729Z,49.21
2019-06-27T10:28:57.140Z,49.82
2019-06-27T10:31:25.552Z,50.42
2019-06-27T10:33:53.958Z,51.01
2019-06-27T10:36:22.400Z,50.77
2019-06-27T10:38:50.835Z,50.76
2019-06-27T10:41:19.274Z,51.25
2019-06-27T10:43:47.679Z,52.74
2019-06-27T10:46:16.130Z,52.38
2019-06-27T10:48:44.511Z,52.28
2019-06-27T10:51:12.938Z,53.08
2019-06-27T10:53:41.348Z,51.68
2019-06-27T10:56:09.758Z,51.63
2019-06-27T10:58:38.239Z,50.88
2019-06-27T11:01:06.677Z,51.88
2019-06-27T11:03:38.257Z,52.34
2019-06-27T11:06:05.215Z,52.60
2019-06-27T11:08:33.604Z,52.09
2019-06-27T11:11:02.074Z,52.10
2019-06-27T11:13:30.432Z,53.10
2019-06-27T11:15:58.844Z,52.36
2019-06-27T11:18:27.241Z,52.05
2019-06-27T11:20:55.649Z,52.92
2019-06-27T11:23:24.047Z,52.87
2019-06-27T11:25:52.462Z,52.71
2019-06-27T11:28:20.875Z,51.48
2019-06-27T11:30:49.284Z,50.52
2019-06-27T11:33:31.404Z,50.28
2019-06-27T11:35:47.814Z,49.95
2019-06-27T11:38:16.215Z,50.11
2019-06-27T11:40:44.723Z,51.31
2019-06-27T11:43:13.130Z,51.40
2019-06-27T11:45:41.788Z,52.37
2019-06-27T11:48:10.189Z,50.21
2019-06-27T11:50:38.584Z,50.05
2019-06-27T11:53:07.008Z,50.37
2019-06-27T11:55:35.425Z,50.56
2019-06-27T11:58:03.844Z,51.31
2019-06-27T12:00:32.250Z,50.11
2019-06-27T12:03:00.664Z,49.67
2019-06-27T12:05:29.061Z,50.01
2019-06-27T12:07:57.493Z,50.80
2019-06-27T12:10:25.964Z,50.38
2019-06-27T12:12:54.378Z,50.12
2019-06-27T12:15:22.813Z,49.13
2019-06-27T12:17:51.227Z,49.87
2019-06-27T12:20:19.708Z,48.55
2019-06-27T12:22:48.125Z,49.00
2019-06-27T12:25:17.086Z,48.22
2019-06-27T12:27:45.517Z,48.91
2019-06-27T12:30:14.084Z,49.42
2019-06-27T12:32:51.703Z,49.68
2019-06-27T12:35:12.895Z,50.09
2019-06-27T12:37:41.318Z,50.40
2019-06-27T12:40:10.265Z,50.82
2019-06-27T12:42:38.690Z,49.71
2019-06-27T12:45:08.035Z,50.20
2019-06-27T12:47:36.508Z,48.90
2019-06-27T12:50:07.358Z,47.63
2019-06-27T12:52:35.827Z,47.73
2019-06-27T12:55:04.486Z,48.10
2019-06-27T12:57:32.900Z,48.16
2019-06-27T13:00:01.300Z,48.67
2019-06-27T13:02:29.728Z,48.43
2019-06-27T13:04:58.126Z,47.82
2019-06-27T13:07:26.553Z,48.70
2019-06-27T13:09:54.974Z,48.82
2019-06-27T13:12:23.517Z,48.72
2019-06-27T13:14:51.944Z,48.90
2019-06-27T13:17:20.351Z,47.79
2019-06-27T13:19:48.766Z,49.38
2019-06-27T13:22:17.197Z,49.09
2019-06-27T13:24:45.589Z,49.66
2019-06-27T13:27:14.046Z,50.79
2019-06-27T13:29:42.414Z,50.64
2019-06-27T13:32:12.616Z,50.51
2019-06-27T13:34:41.335Z,50.60
2019-06-27T13:37:09.740Z,50.59
2019-06-27T13:39:38.146Z,51.28
2019-06-27T13:42:06.550Z,50.69
2019-06-27T13:44:34.957Z,50.23
2019-06-27T13:47:03.395Z,49.69
2019-06-27T13:49:31.801Z,49.54
2019-06-27T13:52:00.496Z,50.76
2019-06-27T13:54:28.885Z,49.16
2019-06-27T13:56:57.295Z,48.87
2019-06-27T13:59:25.702Z,49.38
2019-06-27T14:01:54.112Z,49.81
2019-06-27T14:04:24.420Z,49.62
2019-06-27T14:06:52.651Z,50.29
2019-06-27T14:09:23.622Z,49.88
2019-06-27T14:11:51.317Z,49.45
2019-06-27T14:14:19.770Z,48.10
2019-06-27T14:16:48.177Z,47.95
2019-06-27T14:19:16.590Z,49.17
2019-06-27T14:21:44.997Z,48.83
2019-06-27T14:24:17.275Z,48.60
2019-06-27T14:26:43.530Z,47.87
2019-06-27T14:29:12.029Z,48.13
2019-06-27T14:31:40.437Z,48.57
2019-06-27T14:34:08.846Z,49.19
2019-06-27T14:36:37.249Z,48.56
2019-06-27T14:39:06.802Z,48.16
2019-06-27T14:44:02.561Z,50.12
2019-06-27T14:46:30.976Z,48.13
2019-06-27T14:48:59.388Z,48.94
2019-06-27T14:51:27.791Z,49.40
2019-06-27T14:53:56.208Z,50.04
2019-06-27T14:56:24.608Z,49.93
2019-06-27T14:58:53.029Z,48.01
2019-06-27T15:01:21.438Z,47.46
2019-06-27T15:03:49.845Z,47.61
2019-06-27T15:06:18.252Z,47.10
2019-06-27T15:08:46.659Z,48.13
2019-06-27T15:11:15.080Z,48.78
2019-06-27T15:13:43.487Z,49.14
2019-06-27T15:16:12.569Z,49.24
2019-06-27T15:18:41.076Z,47.40
2019-06-27T15:21:09.535Z,47.48
2019-06-27T15:23:37.895Z,47.82
2019-06-27T15:26:06.294Z,48.78
2019-06-27T15:28:34.709Z,49.35
2019-06-27T15:31:03.190Z,49.59
2019-06-27T15:33:31.593Z,49.59
2019-06-27T15:35:59.999Z,49.56
2019-06-27T15:38:28.410Z,49.45
2019-06-27T15:40:56.821Z,49.90
2019-06-27T15:43:25.235Z,48.99
2019-06-27T15:45:56.450Z,48.54
2019-06-27T15:48:24.874Z,48.69
2019-06-27T15:50:53.319Z,48.90
2019-06-27T15:53:21.738Z,48.87
2019-06-27T15:55:50.140Z,48.73
2019-06-27T15:58:18.577Z,49.78
2019-06-27T16:00:46.996Z,49.64
2019-06-27T16:03:15.417Z,49.67
2019-06-27T16:05:43.826Z,49.94
2019-06-27T16:08:12.245Z,50.13
2019-06-27T16:10:40.662Z,50.85
2019-06-27T16:13:09.076Z,51.64
2019-06-27T16:15:37.485Z,49.72
2019-06-27T16:18:05.897Z,49.67
2019-06-27T16:20:34.302Z,50.06
2019-06-27T16:23:02.706Z,50.61
2019-06-27T16:25:31.116Z,51.13
2019-06-27T16:27:59.517Z,51.73
2019-06-27T16:30:28.072Z,52.44
2019-06-27T16:32:56.465Z,52.65
2019-06-27T16:35:24.881Z,53.56
2019-06-27T16:37:53.357Z,53.62
2019-06-27T16:40:22.213Z,53.22
2019-06-27T16:42:50.618Z,53.02
2019-06-27T16:45:19.115Z,53.32
2019-06-27T16:47:47.650Z,53.80
2019-06-27T16:50:16.890Z,53.71
2019-06-27T16:52:45.292Z,54.56
2019-06-27T16:55:13.907Z,55.20
2019-06-27T16:57:45.370Z,55.73
2019-06-27T17:00:15.119Z,55.58
2019-06-27T17:02:43.604Z,55.33
2019-06-27T17:05:12.319Z,55.59
2019-06-27T17:07:40.716Z,56.10
2019-06-27T17:10:09.891Z,55.67
2019-06-27T17:12:38.304Z,55.47
2019-06-27T17:15:08.457Z,54.56
2019-06-27T17:17:36.855Z,54.92
2019-06-27T17:20:10.206Z,54.56
2019-06-27T17:22:38.621Z,54.08
2019-06-27T17:25:07.941Z,54.02
2019-06-27T17:27:36.346Z,54.49
2019-06-27T17:30:10.169Z,55.35
2019-06-27T17:32:38.569Z,55.35
2019-06-27T17:35:07.267Z,55.59
2019-06-27T17:37:35.675Z,55.61
2019-06-27T17:40:09.717Z,55.75
2019-06-27T17:42:36.151Z,55.95
2019-06-27T17:45:05.135Z,56.25
2019-06-27T17:47:33.545Z,56.38
2019-06-27T17:50:02.112Z,56.26
2019-06-27T17:52:31.456Z,56.48
2019-06-27T17:55:00.035Z,56.50
2019-06-27T17:57:28.456Z,55.70
2019-06-27T17:59:56.897Z,55.94
2019-06-27T18:02:25.317Z,55.94
2019-06-27T18:04:53.889Z,55.69
2019-06-27T18:07:22.291Z,56.15
2019-06-27T18:09:50.710Z,56.30
2019-06-27T18:12:19.109Z,56.58
2019-06-27T18:14:47.509Z,56.57
2019-06-27T18:17:15.953Z,56.37
2019-06-27T18:19:47.299Z,56.56
2019-06-27T18:22:15.711Z,56.50
2019-06-27T18:24:44.120Z,56.60
2019-06-27T18:27:12.523Z,56.64
2019-06-27T18:29:40.936Z,56.61
2019-06-27T18:32:09.357Z,57.01
2019-06-27T18:34:37.778Z,58.20
2019-06-27T18:37:06.196Z,58.20
2019-06-27T18:39:34.608Z,58.75
2019-06-27T18:42:03.026Z,58.64
2019-06-27T18:44:31.422Z,58.49
2019-06-27T18:46:59.832Z,58.75
2019-06-27T18:49:28.246Z,59.34
2019-06-27T18:51:56.687Z,59.65
2019-06-27T18:54:25.079Z,59.76
2019-06-27T18:56:53.491Z,59.76
2019-06-27T18:59:21.927Z,60.15
2019-06-27T19:01:52.297Z,60.11
2019-06-27T19:04:20.692Z,60.08
2019-06-27T19:06:49.119Z,60.10
2019-06-27T19:09:17.544Z,60.14
2019-06-27T19:11:45.950Z,61.07
2019-06-27T19:14:14.366Z,61.01
2019-06-27T19:16:42.790Z,61.12
2019-06-27T19:19:12.829Z,60.98
2019-06-27T19:21:45.331Z,61.51
2019-06-27T19:24:20.858Z,61.75
2019-06-27T19:26:50.924Z,61.86
2019-06-27T19:29:19.325Z,61.70
2019-06-27T19:31:47.750Z,62.07
2019-06-27T19:34:16.229Z,62.36
2019-06-27T19:36:44.849Z,62.29
2019-06-27T19:39:13.287Z,62.08
2019-06-27T19:41:41.686Z,62.32
2019-06-27T19:44:10.556Z,61.96
2019-06-27T19:46:38.995Z,62.38
2019-06-27T19:49:07.390Z,62.31
2019-06-27T19:51:35.810Z,62.74
2019-06-27T19:54:04.284Z,63.56
2019-06-27T19:56:32.717Z,64.06
2019-06-27T19:59:01.103Z,64.46
2019-06-27T20:01:29.559Z,64.86
2019-06-27T20:03:57.963Z,64.35
2019-06-27T20:06:26.373Z,63.99
2019-06-27T20:08:54.776Z,64.14
2019-06-27T20:11:23.190Z,64.68
2019-06-27T20:13:51.698Z,64.63
2019-06-27T20:16:20.108Z,64.38
2019-06-27T20:18:48.521Z,64.87
2019-06-27T20:21:16.953Z,65.18
2019-06-27T20:23:45.344Z,64.79
2019-06-27T20:26:13.748Z,65.29
2019-06-27T20:28:42.187Z,65.52
2019-06-27T20:31:10.635Z,66.31
2019-06-27T20:33:39.038Z,67.16
2019-06-27T20:36:07.450Z,67.04
2019-06-27T20:38:35.866Z,67.26
2019-06-27T20:41:04.276Z,67.85
2019-06-27T20:43:32.707Z,68.21
2019-06-27T20:46:01.142Z,68.03
2019-06-27T20:48:29.598Z,68.56
2019-06-27T20:50:58.001Z,69.29
2019-06-27T20:53:26.421Z,69.57
2019-06-27T20:55:54.832Z,69.59
2019-06-27T20:58:23.374Z,69.42
2019-06-27T21:00:51.797Z,68.86
2019-06-27T21:03:20.219Z,69.20
2019-06-27T21:05:48.645Z,69.86
2019-06-27T21:08:17.058Z,70.17
2019-06-27T21:10:45.460Z,69.62
2019-06-27T21:13:13.865Z,69.49
2019-06-27T21:15:42.279Z,69.11
2019-06-27T21:18:10.697Z,69.16
2019-06-27T21:20:39.104Z,68.72
2019-06-27T21:23:07.526Z,69.48
2019-06-27T21:25:35.963Z,69.73
2019-06-27T21:28:04.350Z,69.88
2019-06-27T21:30:32.765Z,69.89
2019-06-27T21:33:01.183Z,69.88
2019-06-27T21:35:29.597Z,69.59
2019-06-27T21:37:58.008Z,69.80
2019-06-27T21:40:26.414Z,69.63
2019-06-27T21:42:54.837Z,69.25
2019-06-27T21:45:23.265Z,69.28
2019-06-27T21:47:51.678Z,69.08
2019-06-27T21:50:20.317Z,68.85
2019-06-27T21:52:48.729Z,68.27
2019-06-27T21:55:17.132Z,68.34
2019-06-27T21:57:45.549Z,67.96
2019-06-27T22:00:14.725Z,68.39
2019-06-27T22:02:43.207Z,68.48
2019-06-27T22:05:12.140Z,68.76
2019-06-27T22:07:40.552Z,69.25
2019-06-27T22:10:10.999Z,69.60
2019-06-27T22:12:39.408Z,69.09
2019-06-27T22:15:08.353Z,68.62
2019-06-27T22:17:36.775Z,68.29
2019-06-27T22:20:15.189Z,68.42
2019-06-27T22:22:36.458Z,68.90
2019-06-27T22:25:06.736Z,68.72
2019-06-27T22:27:35.886Z,68.46
2019-06-27T22:30:06.902Z,68.25
2019-06-27T22:32:35.397Z,68.02
2019-06-27T22:35:04.545Z,69.09
2019-06-27T22:37:32.209Z,68.97
2019-06-27T22:40:18.452Z,69.43
2019-06-27T22:43:04.742Z,69.82
2019-06-27T22:45:51.046Z,69.76
2019-06-27T22:48:20.435Z,69.70
2019-06-27T22:50:51.223Z,69.18
2019-06-27T22:53:22.109Z,69.21
2019-06-27T22:55:50.904Z,69.49
2019-06-27T22:58:19.326Z,69.21
2019-06-27T23:00:47.740Z,69.12
2019-06-27T23:03:16.153Z,68.57
2019-06-27T23:05:44.571Z,68.84
2019-06-27T23:08:12.979Z,69.41
2019-06-27T23:10:41.387Z,69.02
2019-06-27T23:13:10.084Z,68.20
2019-06-27T23:15:38.483Z,68.25
2019-06-27T23:18:06.925Z,68.08
2019-06-27T23:20:35.337Z,68.08
2019-06-27T23:23:03.755Z,68.13
2019-06-27T23:25:32.164Z,69.09
2019-06-27T23:28:00.575Z,68.60
2019-06-27T23:30:28.991Z,67.89
2019-06-27T23:32:57.399Z,67.72
2019-06-27T23:35:25.815Z,67.65
2019-06-27T23:37:54.237Z,67.85
2019-06-27T23:40:22.650Z,67.73
2019-06-27T23:42:51.061Z,67.52
2019-06-27T23:45:19.471Z,67.42
2019-06-27T23:47:47.879Z,67.36
2019-06-27T23:50:16.370Z,67.69
2019-06-27T23:52:44.775Z,67.33
2019-06-27T23:55:13.272Z,67.22
2019-06-27T23:57:41.673Z,67.23
